sensor_id;sensor_type;location;lat;lon;timestamp;P1;durP1;ratioP1;P2;durP2;ratioP2
20865;SDS011;10593;48.398;10.698;2023-06-26T00:01:16;5.43;;;5.03;;
20865;SDS011;10593;48.398;10.698;2023-06-26T00:03:46;5.73;;;5.13;;
20865;SDS011;10593;48.398;10.698;2023-06-26T00:06:12;6.47;;;5.93;;
20865;SDS011;10593;48.398;10.698;2023-06-26T00:08:38;5.77;;;5.27;;
20865;SDS011;10593;48.398;10.698;2023-06-26T00:11:04;6.83;;;5.67;;
20865;SDS011;10593;48.398;10.698;2023-06-26T00:13:30;6.00;;;5.50;;
20865;SDS011;10593;48.398;10.698;2023-06-26T00:15:56;6.23;;;5.63;;
20865;SDS011;10593;48.398;10.698;2023-06-26T00:18:21;4.87;;;4.47;;
20865;SDS011;10593;48.398;10.698;2023-06-26T00:20:48;5.93;;;5.43;;
20865;SDS011;10593;48.398;10.698;2023-06-26T00:23:15;5.87;;;5.37;;
20865;SDS011;10593;48.398;10.698;2023-06-26T00:25:42;5.63;;;5.13;;
20865;SDS011;10593;48.398;10.698;2023-06-26T00:28:08;5.43;;;4.93;;
20865;SDS011;10593;48.398;10.698;2023-06-26T00:30:34;5.97;;;5.37;;
20865;SDS011;10593;48.398;10.698;2023-06-26T00:33:00;5.37;;;4.97;;
20865;SDS011;10593;48.398;10.698;2023-06-26T00:35:26;6.10;;;5.60;;
20865;SDS011;10593;48.398;10.698;2023-06-26T00:37:52;5.80;;;5.40;;
20865;SDS011;10593;48.398;10.698;2023-06-26T00:40:18;5.30;;;4.90;;
20865;SDS011;10593;48.398;10.698;2023-06-26T00:42:43;5.27;;;4.87;;
20865;SDS011;10593;48.398;10.698;2023-06-26T00:45:09;6.33;;;5.73;;
20865;SDS011;10593;48.398;10.698;2023-06-26T00:47:35;5.57;;;5.13;;
20865;SDS011;10593;48.398;10.698;2023-06-26T00:50:02;5.93;;;5.43;;
20865;SDS011;10593;48.398;10.698;2023-06-26T00:52:29;6.07;;;5.57;;
20865;SDS011;10593;48.398;10.698;2023-06-26T00:54:55;5.90;;;5.30;;
20865;SDS011;10593;48.398;10.698;2023-06-26T00:57:21;5.80;;;5.30;;
20865;SDS011;10593;48.398;10.698;2023-06-26T00:59:47;5.80;;;5.30;;
20865;SDS011;10593;48.398;10.698;2023-06-26T01:02:13;6.37;;;5.87;;
20865;SDS011;10593;48.398;10.698;2023-06-26T01:04:42;6.20;;;5.70;;
20865;SDS011;10593;48.398;10.698;2023-06-26T01:07:11;6.23;;;5.73;;
20865;SDS011;10593;48.398;10.698;2023-06-26T01:09:40;5.87;;;5.40;;
20865;SDS011;10593;48.398;10.698;2023-06-26T01:12:06;5.73;;;5.23;;
20865;SDS011;10593;48.398;10.698;2023-06-26T01:14:33;6.47;;;5.87;;
20865;SDS011;10593;48.398;10.698;2023-06-26T01:17:01;5.93;;;5.43;;
20865;SDS011;10593;48.398;10.698;2023-06-26T01:19:28;6.00;;;5.50;;
20865;SDS011;10593;48.398;10.698;2023-06-26T01:24:49;6.43;;;5.93;;
20865;SDS011;10593;48.398;10.698;2023-06-26T01:27:48;6.00;;;5.50;;
20865;SDS011;10593;48.398;10.698;2023-06-26T01:30:17;6.20;;;5.60;;
20865;SDS011;10593;48.398;10.698;2023-06-26T01:32:44;6.20;;;5.70;;
20865;SDS011;10593;48.398;10.698;2023-06-26T01:35:11;5.83;;;5.37;;
20865;SDS011;10593;48.398;10.698;2023-06-26T01:37:39;5.10;;;4.70;;
20865;SDS011;10593;48.398;10.698;2023-06-26T01:40:05;6.53;;;5.93;;
20865;SDS011;10593;48.398;10.698;2023-06-26T01:42:32;5.63;;;5.20;;
20865;SDS011;10593;48.398;10.698;2023-06-26T01:45:01;6.07;;;5.47;;
20865;SDS011;10593;48.398;10.698;2023-06-26T01:47:35;6.60;;;6.00;;
20865;SDS011;10593;48.398;10.698;2023-06-26T01:50:08;7.33;;;6.63;;
20865;SDS011;10593;48.398;10.698;2023-06-26T01:52:43;6.60;;;6.00;;
20865;SDS011;10593;48.398;10.698;2023-06-26T01:55:47;6.27;;;5.20;;
20865;SDS011;10593;48.398;10.698;2023-06-26T01:58:22;5.93;;;5.43;;
20865;SDS011;10593;48.398;10.698;2023-06-26T02:00:50;5.90;;;5.40;;
20865;SDS011;10593;48.398;10.698;2023-06-26T02:03:16;5.47;;;4.97;;
20865;SDS011;10593;48.398;10.698;2023-06-26T02:05:42;5.17;;;4.77;;
20865;SDS011;10593;48.398;10.698;2023-06-26T02:08:09;6.30;;;5.70;;
20865;SDS011;10593;48.398;10.698;2023-06-26T02:10:38;6.10;;;5.60;;
20865;SDS011;10593;48.398;10.698;2023-06-26T02:13:03;6.00;;;5.50;;
20865;SDS011;10593;48.398;10.698;2023-06-26T02:15:29;5.70;;;5.20;;
20865;SDS011;10593;48.398;10.698;2023-06-26T02:17:55;6.03;;;5.53;;
20865;SDS011;10593;48.398;10.698;2023-06-26T02:20:20;6.57;;;5.97;;
20865;SDS011;10593;48.398;10.698;2023-06-26T02:22:46;5.57;;;5.17;;
20865;SDS011;10593;48.398;10.698;2023-06-26T02:25:11;5.90;;;5.40;;
20865;SDS011;10593;48.398;10.698;2023-06-26T02:27:37;6.43;;;5.90;;
20865;SDS011;10593;48.398;10.698;2023-06-26T02:30:04;6.10;;;5.60;;
20865;SDS011;10593;48.398;10.698;2023-06-26T02:32:30;7.67;;;5.60;;
20865;SDS011;10593;48.398;10.698;2023-06-26T02:34:56;6.50;;;6.00;;
20865;SDS011;10593;48.398;10.698;2023-06-26T02:37:21;6.20;;;5.70;;
20865;SDS011;10593;48.398;10.698;2023-06-26T02:39:47;5.50;;;5.03;;
20865;SDS011;10593;48.398;10.698;2023-06-26T02:42:13;5.73;;;5.23;;
20865;SDS011;10593;48.398;10.698;2023-06-26T02:44:38;5.60;;;5.10;;
20865;SDS011;10593;48.398;10.698;2023-06-26T02:47:04;6.20;;;5.60;;
20865;SDS011;10593;48.398;10.698;2023-06-26T02:49:30;6.00;;;5.50;;
20865;SDS011;10593;48.398;10.698;2023-06-26T02:51:56;5.57;;;5.17;;
20865;SDS011;10593;48.398;10.698;2023-06-26T02:54:21;6.13;;;5.63;;
20865;SDS011;10593;48.398;10.698;2023-06-26T02:56:47;5.70;;;5.20;;
20865;SDS011;10593;48.398;10.698;2023-06-26T02:59:13;6.10;;;5.60;;
20865;SDS011;10593;48.398;10.698;2023-06-26T03:01:39;6.00;;;5.50;;
20865;SDS011;10593;48.398;10.698;2023-06-26T03:04:04;6.50;;;5.90;;
20865;SDS011;10593;48.398;10.698;2023-06-26T03:06:30;7.07;;;6.47;;
20865;SDS011;10593;48.398;10.698;2023-06-26T03:08:56;5.63;;;5.13;;
20865;SDS011;10593;48.398;10.698;2023-06-26T03:11:21;6.27;;;5.67;;
20865;SDS011;10593;48.398;10.698;2023-06-26T03:13:47;6.23;;;5.73;;
20865;SDS011;10593;48.398;10.698;2023-06-26T03:16:13;7.07;;;6.47;;
20865;SDS011;10593;48.398;10.698;2023-06-26T03:18:38;6.13;;;5.63;;
20865;SDS011;10593;48.398;10.698;2023-06-26T03:21:04;6.33;;;5.77;;
20865;SDS011;10593;48.398;10.698;2023-06-26T03:23:30;7.43;;;6.73;;
20865;SDS011;10593;48.398;10.698;2023-06-26T03:25:55;6.47;;;5.87;;
20865;SDS011;10593;48.398;10.698;2023-06-26T03:28:21;6.53;;;5.93;;
20865;SDS011;10593;48.398;10.698;2023-06-26T03:30:47;6.67;;;5.80;;
20865;SDS011;10593;48.398;10.698;2023-06-26T03:33:12;5.83;;;5.33;;
20865;SDS011;10593;48.398;10.698;2023-06-26T03:35:38;5.93;;;5.33;;
20865;SDS011;10593;48.398;10.698;2023-06-26T03:38:04;7.57;;;5.87;;
20865;SDS011;10593;48.398;10.698;2023-06-26T03:40:30;6.63;;;6.03;;
20865;SDS011;10593;48.398;10.698;2023-06-26T03:42:56;6.00;;;5.50;;
20865;SDS011;10593;48.398;10.698;2023-06-26T03:45:22;6.20;;;5.67;;
20865;SDS011;10593;48.398;10.698;2023-06-26T03:47:47;6.00;;;5.50;;
20865;SDS011;10593;48.398;10.698;2023-06-26T03:50:17;5.97;;;5.37;;
20865;SDS011;10593;48.398;10.698;2023-06-26T03:52:43;5.47;;;4.97;;
20865;SDS011;10593;48.398;10.698;2023-06-26T03:55:09;6.23;;;5.73;;
20865;SDS011;10593;48.398;10.698;2023-06-26T03:57:35;6.00;;;5.50;;
20865;SDS011;10593;48.398;10.698;2023-06-26T04:00:01;6.53;;;5.93;;
20865;SDS011;10593;48.398;10.698;2023-06-26T04:02:33;5.47;;;4.97;;
20865;SDS011;10593;48.398;10.698;2023-06-26T04:04:59;5.80;;;5.40;;
20865;SDS011;10593;48.398;10.698;2023-06-26T04:07:25;6.33;;;5.73;;
20865;SDS011;10593;48.398;10.698;2023-06-26T04:09:51;6.93;;;6.23;;
20865;SDS011;10593;48.398;10.698;2023-06-26T04:12:17;6.50;;;5.83;;
20865;SDS011;10593;48.398;10.698;2023-06-26T04:14:42;6.93;;;6.33;;
20865;SDS011;10593;48.398;10.698;2023-06-26T04:17:08;6.90;;;6.30;;
20865;SDS011;10593;48.398;10.698;2023-06-26T04:19:35;6.87;;;6.20;;
20865;SDS011;10593;48.398;10.698;2023-06-26T04:22:01;6.40;;;5.80;;
20865;SDS011;10593;48.398;10.698;2023-06-26T04:24:27;6.53;;;5.77;;
20865;SDS011;10593;48.398;10.698;2023-06-26T04:26:53;6.30;;;5.80;;
20865;SDS011;10593;48.398;10.698;2023-06-26T04:29:22;6.60;;;5.97;;
20865;SDS011;10593;48.398;10.698;2023-06-26T04:31:51;6.57;;;5.97;;
20865;SDS011;10593;48.398;10.698;2023-06-26T04:34:22;6.70;;;6.00;;
20865;SDS011;10593;48.398;10.698;2023-06-26T04:36:49;6.13;;;5.63;;
20865;SDS011;10593;48.398;10.698;2023-06-26T04:39:16;6.50;;;5.77;;
20865;SDS011;10593;48.398;10.698;2023-06-26T04:41:42;6.13;;;5.43;;
20865;SDS011;10593;48.398;10.698;2023-06-26T04:44:09;6.23;;;5.63;;
20865;SDS011;10593;48.398;10.698;2023-06-26T04:46:36;5.93;;;5.40;;
20865;SDS011;10593;48.398;10.698;2023-06-26T04:49:06;6.67;;;6.07;;
20865;SDS011;10593;48.398;10.698;2023-06-26T04:51:33;6.40;;;5.77;;
20865;SDS011;10593;48.398;10.698;2023-06-26T04:54:03;6.67;;;6.00;;
20865;SDS011;10593;48.398;10.698;2023-06-26T04:56:28;6.90;;;6.20;;
20865;SDS011;10593;48.398;10.698;2023-06-26T04:58:55;6.43;;;5.83;;
20865;SDS011;10593;48.398;10.698;2023-06-26T05:01:21;6.87;;;6.27;;
20865;SDS011;10593;48.398;10.698;2023-06-26T05:03:47;6.63;;;6.03;;
20865;SDS011;10593;48.398;10.698;2023-06-26T05:06:12;7.13;;;6.43;;
20865;SDS011;10593;48.398;10.698;2023-06-26T05:08:38;7.57;;;6.83;;
20865;SDS011;10593;48.398;10.698;2023-06-26T05:11:04;6.40;;;5.80;;
20865;SDS011;10593;48.398;10.698;2023-06-26T05:13:29;6.63;;;6.03;;
20865;SDS011;10593;48.398;10.698;2023-06-26T05:15:55;6.77;;;6.17;;
20865;SDS011;10593;48.398;10.698;2023-06-26T05:18:20;7.57;;;6.87;;
20865;SDS011;10593;48.398;10.698;2023-06-26T05:20:46;7.77;;;6.97;;
20865;SDS011;10593;48.398;10.698;2023-06-26T05:23:12;6.70;;;6.10;;
20865;SDS011;10593;48.398;10.698;2023-06-26T05:25:41;7.40;;;6.63;;
20865;SDS011;10593;48.398;10.698;2023-06-26T05:28:07;6.83;;;6.23;;
20865;SDS011;10593;48.398;10.698;2023-06-26T05:30:35;7.17;;;6.57;;
20865;SDS011;10593;48.398;10.698;2023-06-26T05:33:02;7.03;;;6.40;;
20865;SDS011;10593;48.398;10.698;2023-06-26T05:35:29;6.90;;;6.30;;
20865;SDS011;10593;48.398;10.698;2023-06-26T05:37:56;7.97;;;6.60;;
20865;SDS011;10593;48.398;10.698;2023-06-26T05:40:23;7.00;;;6.40;;
20865;SDS011;10593;48.398;10.698;2023-06-26T05:42:49;6.60;;;6.00;;
20865;SDS011;10593;48.398;10.698;2023-06-26T05:45:15;7.00;;;6.40;;
20865;SDS011;10593;48.398;10.698;2023-06-26T05:47:41;6.43;;;5.93;;
20865;SDS011;10593;48.398;10.698;2023-06-26T05:50:08;7.90;;;7.13;;
20865;SDS011;10593;48.398;10.698;2023-06-26T05:52:35;7.37;;;6.70;;
20865;SDS011;10593;48.398;10.698;2023-06-26T05:55:02;6.40;;;5.90;;
20865;SDS011;10593;48.398;10.698;2023-06-26T05:57:28;6.37;;;5.77;;
20865;SDS011;10593;48.398;10.698;2023-06-26T05:59:55;6.57;;;5.97;;
20865;SDS011;10593;48.398;10.698;2023-06-26T06:02:21;6.83;;;6.23;;
20865;SDS011;10593;48.398;10.698;2023-06-26T06:04:47;6.13;;;5.63;;
20865;SDS011;10593;48.398;10.698;2023-06-26T06:07:13;6.83;;;6.23;;
20865;SDS011;10593;48.398;10.698;2023-06-26T06:09:39;5.97;;;5.47;;
20865;SDS011;10593;48.398;10.698;2023-06-26T06:12:05;5.40;;;5.00;;
20865;SDS011;10593;48.398;10.698;2023-06-26T06:14:32;6.67;;;6.07;;
20865;SDS011;10593;48.398;10.698;2023-06-26T06:16:59;6.77;;;6.17;;
20865;SDS011;10593;48.398;10.698;2023-06-26T06:19:25;5.80;;;5.30;;
20865;SDS011;10593;48.398;10.698;2023-06-26T06:21:51;6.00;;;5.47;;
20865;SDS011;10593;48.398;10.698;2023-06-26T06:24:17;5.90;;;5.43;;
20865;SDS011;10593;48.398;10.698;2023-06-26T06:26:42;6.07;;;5.53;;
20865;SDS011;10593;48.398;10.698;2023-06-26T06:29:08;6.57;;;5.97;;
20865;SDS011;10593;48.398;10.698;2023-06-26T06:31:34;5.13;;;4.73;;
20865;SDS011;10593;48.398;10.698;2023-06-26T06:34:00;5.70;;;5.20;;
20865;SDS011;10593;48.398;10.698;2023-06-26T06:36:26;5.90;;;5.40;;
20865;SDS011;10593;48.398;10.698;2023-06-26T06:38:52;5.30;;;4.80;;
20865;SDS011;10593;48.398;10.698;2023-06-26T06:41:17;6.40;;;5.80;;
20865;SDS011;10593;48.398;10.698;2023-06-26T06:43:44;6.43;;;5.43;;
20865;SDS011;10593;48.398;10.698;2023-06-26T06:46:10;4.90;;;4.50;;
20865;SDS011;10593;48.398;10.698;2023-06-26T06:48:36;4.67;;;4.27;;
20865;SDS011;10593;48.398;10.698;2023-06-26T06:51:01;4.80;;;4.40;;
20865;SDS011;10593;48.398;10.698;2023-06-26T06:53:27;4.97;;;4.57;;
20865;SDS011;10593;48.398;10.698;2023-06-26T06:55:52;4.70;;;4.30;;
20865;SDS011;10593;48.398;10.698;2023-06-26T06:58:18;5.60;;;5.10;;
20865;SDS011;10593;48.398;10.698;2023-06-26T07:00:45;5.30;;;4.80;;
20865;SDS011;10593;48.398;10.698;2023-06-26T07:03:11;5.90;;;4.90;;
20865;SDS011;10593;48.398;10.698;2023-06-26T07:05:37;5.10;;;4.70;;
20865;SDS011;10593;48.398;10.698;2023-06-26T07:08:03;4.80;;;4.40;;
20865;SDS011;10593;48.398;10.698;2023-06-26T07:10:29;5.00;;;4.57;;
20865;SDS011;10593;48.398;10.698;2023-06-26T07:12:56;4.83;;;4.43;;
20865;SDS011;10593;48.398;10.698;2023-06-26T07:15:21;4.93;;;4.53;;
20865;SDS011;10593;48.398;10.698;2023-06-26T07:17:47;5.37;;;4.90;;
20865;SDS011;10593;48.398;10.698;2023-06-26T07:20:12;5.10;;;4.70;;
20865;SDS011;10593;48.398;10.698;2023-06-26T07:22:40;5.10;;;4.70;;
20865;SDS011;10593;48.398;10.698;2023-06-26T07:25:08;5.17;;;4.77;;
20865;SDS011;10593;48.398;10.698;2023-06-26T07:27:34;5.13;;;4.73;;
20865;SDS011;10593;48.398;10.698;2023-06-26T07:30:01;5.17;;;4.70;;
20865;SDS011;10593;48.398;10.698;2023-06-26T07:32:27;4.80;;;4.40;;
20865;SDS011;10593;48.398;10.698;2023-06-26T07:34:53;4.50;;;4.10;;
20865;SDS011;10593;48.398;10.698;2023-06-26T07:37:19;4.90;;;4.50;;
20865;SDS011;10593;48.398;10.698;2023-06-26T07:39:44;4.60;;;4.20;;
20865;SDS011;10593;48.398;10.698;2023-06-26T07:42:10;5.17;;;4.70;;
20865;SDS011;10593;48.398;10.698;2023-06-26T07:44:35;4.57;;;4.20;;
20865;SDS011;10593;48.398;10.698;2023-06-26T07:47:01;6.83;;;4.77;;
20865;SDS011;10593;48.398;10.698;2023-06-26T07:49:27;5.33;;;4.93;;
20865;SDS011;10593;48.398;10.698;2023-06-26T07:51:53;8.50;;;4.60;;
20865;SDS011;10593;48.398;10.698;2023-06-26T07:54:18;6.07;;;4.60;;
20865;SDS011;10593;48.398;10.698;2023-06-26T07:56:57;4.90;;;4.50;;
20865;SDS011;10593;48.398;10.698;2023-06-26T07:59:26;5.00;;;4.50;;
20865;SDS011;10593;48.398;10.698;2023-06-26T08:01:55;5.50;;;4.73;;
20865;SDS011;10593;48.398;10.698;2023-06-26T08:04:23;5.20;;;4.37;;
20865;SDS011;10593;48.398;10.698;2023-06-26T08:06:52;4.07;;;3.77;;
20865;SDS011;10593;48.398;10.698;2023-06-26T08:09:21;11.77;;;5.27;;
20865;SDS011;10593;48.398;10.698;2023-06-26T08:11:49;6.40;;;4.40;;
20865;SDS011;10593;48.398;10.698;2023-06-26T08:14:15;7.80;;;4.87;;
20865;SDS011;10593;48.398;10.698;2023-06-26T08:16:42;4.60;;;4.17;;
20865;SDS011;10593;48.398;10.698;2023-06-26T08:19:09;5.53;;;4.80;;
20865;SDS011;10593;48.398;10.698;2023-06-26T08:21:35;4.60;;;4.20;;
20865;SDS011;10593;48.398;10.698;2023-06-26T08:24:01;4.13;;;3.83;;
20865;SDS011;10593;48.398;10.698;2023-06-26T08:26:27;4.10;;;3.80;;
20865;SDS011;10593;48.398;10.698;2023-06-26T08:28:53;3.90;;;3.60;;
20865;SDS011;10593;48.398;10.698;2023-06-26T08:31:19;3.93;;;3.63;;
20865;SDS011;10593;48.398;10.698;2023-06-26T08:33:45;4.20;;;3.80;;
20865;SDS011;10593;48.398;10.698;2023-06-26T08:36:11;4.20;;;3.80;;
20865;SDS011;10593;48.398;10.698;2023-06-26T08:38:37;4.20;;;3.90;;
20865;SDS011;10593;48.398;10.698;2023-06-26T08:41:06;3.40;;;3.10;;
20865;SDS011;10593;48.398;10.698;2023-06-26T08:43:32;4.43;;;4.03;;
20865;SDS011;10593;48.398;10.698;2023-06-26T08:46:00;4.00;;;3.70;;
20865;SDS011;10593;48.398;10.698;2023-06-26T08:48:25;4.00;;;3.50;;
20865;SDS011;10593;48.398;10.698;2023-06-26T08:50:56;3.70;;;3.40;;
20865;SDS011;10593;48.398;10.698;2023-06-26T08:53:29;3.90;;;3.60;;
20865;SDS011;10593;48.398;10.698;2023-06-26T08:56:17;3.80;;;3.50;;
20865;SDS011;10593;48.398;10.698;2023-06-26T08:58:46;3.30;;;3.10;;
20865;SDS011;10593;48.398;10.698;2023-06-26T09:01:12;3.37;;;3.13;;
20865;SDS011;10593;48.398;10.698;2023-06-26T09:03:38;3.77;;;3.47;;
20865;SDS011;10593;48.398;10.698;2023-06-26T09:06:06;5.10;;;4.00;;
20865;SDS011;10593;48.398;10.698;2023-06-26T09:08:32;3.67;;;3.23;;
20865;SDS011;10593;48.398;10.698;2023-06-26T09:10:58;3.90;;;3.60;;
20865;SDS011;10593;48.398;10.698;2023-06-26T09:13:23;4.00;;;3.60;;
20865;SDS011;10593;48.398;10.698;2023-06-26T09:15:50;3.47;;;3.17;;
20865;SDS011;10593;48.398;10.698;2023-06-26T09:18:20;3.73;;;3.20;;
20865;SDS011;10593;48.398;10.698;2023-06-26T09:20:47;3.23;;;3.03;;
20865;SDS011;10593;48.398;10.698;2023-06-26T09:23:15;3.60;;;3.30;;
20865;SDS011;10593;48.398;10.698;2023-06-26T09:25:41;3.53;;;3.33;;
20865;SDS011;10593;48.398;10.698;2023-06-26T09:28:08;3.80;;;3.50;;
20865;SDS011;10593;48.398;10.698;2023-06-26T09:30:34;2.87;;;2.77;;
20865;SDS011;10593;48.398;10.698;2023-06-26T09:33:14;3.53;;;3.30;;
20865;SDS011;10593;48.398;10.698;2023-06-26T09:35:45;3.70;;;3.40;;
20865;SDS011;10593;48.398;10.698;2023-06-26T09:38:12;3.97;;;3.67;;
20865;SDS011;10593;48.398;10.698;2023-06-26T09:40:39;3.70;;;3.40;;
20865;SDS011;10593;48.398;10.698;2023-06-26T09:43:06;4.77;;;3.57;;
20865;SDS011;10593;48.398;10.698;2023-06-26T09:45:35;4.10;;;3.70;;
20865;SDS011;10593;48.398;10.698;2023-06-26T09:48:01;3.53;;;3.33;;
20865;SDS011;10593;48.398;10.698;2023-06-26T09:50:29;3.90;;;3.10;;
20865;SDS011;10593;48.398;10.698;2023-06-26T09:52:58;3.73;;;3.43;;
20865;SDS011;10593;48.398;10.698;2023-06-26T09:55:36;3.70;;;3.40;;
20865;SDS011;10593;48.398;10.698;2023-06-26T09:58:02;3.43;;;3.23;;
20865;SDS011;10593;48.398;10.698;2023-06-26T10:00:30;3.50;;;3.30;;
20865;SDS011;10593;48.398;10.698;2023-06-26T10:02:57;3.33;;;3.13;;
20865;SDS011;10593;48.398;10.698;2023-06-26T10:05:23;3.67;;;3.37;;
20865;SDS011;10593;48.398;10.698;2023-06-26T10:07:49;3.27;;;3.07;;
20865;SDS011;10593;48.398;10.698;2023-06-26T10:10:16;3.77;;;3.47;;
20865;SDS011;10593;48.398;10.698;2023-06-26T10:12:42;3.80;;;3.50;;
20865;SDS011;10593;48.398;10.698;2023-06-26T10:15:14;3.47;;;3.23;;
20865;SDS011;10593;48.398;10.698;2023-06-26T10:17:42;3.40;;;3.20;;
20865;SDS011;10593;48.398;10.698;2023-06-26T10:20:10;3.30;;;3.00;;
20865;SDS011;10593;48.398;10.698;2023-06-26T10:22:41;3.60;;;3.30;;
20865;SDS011;10593;48.398;10.698;2023-06-26T10:25:10;3.50;;;3.30;;
20865;SDS011;10593;48.398;10.698;2023-06-26T10:27:44;3.77;;;3.47;;
20865;SDS011;10593;48.398;10.698;2023-06-26T10:30:20;3.70;;;3.40;;
20865;SDS011;10593;48.398;10.698;2023-06-26T10:32:52;4.50;;;3.60;;
20865;SDS011;10593;48.398;10.698;2023-06-26T10:35:20;4.37;;;3.97;;
20865;SDS011;10593;48.398;10.698;2023-06-26T10:37:47;3.80;;;3.50;;
20865;SDS011;10593;48.398;10.698;2023-06-26T10:40:21;4.30;;;3.50;;
20865;SDS011;10593;48.398;10.698;2023-06-26T10:43:06;3.93;;;3.70;;
20865;SDS011;10593;48.398;10.698;2023-06-26T10:45:33;4.65;;;4.13;;
20865;SDS011;10593;48.398;10.698;2023-06-26T10:48:00;4.40;;;4.00;;
20865;SDS011;10593;48.398;10.698;2023-06-26T10:50:32;3.90;;;3.60;;
20865;SDS011;10593;48.398;10.698;2023-06-26T10:58:30;3.93;;;3.63;;
20865;SDS011;10593;48.398;10.698;2023-06-26T11:03:46;5.10;;;3.80;;
20865;SDS011;10593;48.398;10.698;2023-06-26T11:06:26;4.00;;;3.70;;
20865;SDS011;10593;48.398;10.698;2023-06-26T11:14:24;3.88;;;3.58;;
20865;SDS011;10593;48.398;10.698;2023-06-26T11:16:51;6.67;;;4.07;;
20865;SDS011;10593;48.398;10.698;2023-06-26T11:19:19;3.90;;;3.60;;
20865;SDS011;10593;48.398;10.698;2023-06-26T11:21:46;4.13;;;3.83;;
20865;SDS011;10593;48.398;10.698;2023-06-26T11:24:12;4.03;;;3.73;;
20865;SDS011;10593;48.398;10.698;2023-06-26T11:26:42;3.90;;;3.60;;
20865;SDS011;10593;48.398;10.698;2023-06-26T11:29:10;3.70;;;3.40;;
20865;SDS011;10593;48.398;10.698;2023-06-26T11:31:37;3.80;;;3.20;;
20865;SDS011;10593;48.398;10.698;2023-06-26T11:34:09;3.93;;;3.63;;
20865;SDS011;10593;48.398;10.698;2023-06-26T11:36:38;3.43;;;3.23;;
20865;SDS011;10593;48.398;10.698;2023-06-26T11:39:07;3.40;;;3.20;;
20865;SDS011;10593;48.398;10.698;2023-06-26T11:41:34;3.80;;;3.40;;
20865;SDS011;10593;48.398;10.698;2023-06-26T11:44:02;3.60;;;3.30;;
20865;SDS011;10593;48.398;10.698;2023-06-26T11:46:34;3.33;;;3.13;;
20865;SDS011;10593;48.398;10.698;2023-06-26T11:49:04;3.90;;;3.50;;
20865;SDS011;10593;48.398;10.698;2023-06-26T11:51:33;3.33;;;2.87;;
20865;SDS011;10593;48.398;10.698;2023-06-26T11:54:01;3.20;;;3.00;;
20865;SDS011;10593;48.398;10.698;2023-06-26T11:56:29;3.43;;;2.93;;
20865;SDS011;10593;48.398;10.698;2023-06-26T12:01:33;4.10;;;3.80;;
20865;SDS011;10593;48.398;10.698;2023-06-26T12:04:13;3.40;;;3.20;;
20865;SDS011;10593;48.398;10.698;2023-06-26T12:06:47;4.20;;;3.90;;
20865;SDS011;10593;48.398;10.698;2023-06-26T12:09:22;3.57;;;3.27;;
20865;SDS011;10593;48.398;10.698;2023-06-26T12:11:51;3.63;;;3.35;;
20865;SDS011;10593;48.398;10.698;2023-06-26T12:14:20;5.72;;;3.65;;
20865;SDS011;10593;48.398;10.698;2023-06-26T12:16:47;4.00;;;3.70;;
20865;SDS011;10593;48.398;10.698;2023-06-26T12:19:13;3.43;;;3.23;;
20865;SDS011;10593;48.398;10.698;2023-06-26T12:24:18;3.67;;;3.40;;
20865;SDS011;10593;48.398;10.698;2023-06-26T12:26:47;5.30;;;3.93;;
20865;SDS011;10593;48.398;10.698;2023-06-26T12:29:24;3.70;;;3.40;;
20865;SDS011;10593;48.398;10.698;2023-06-26T12:31:58;4.00;;;3.70;;
20865;SDS011;10593;48.398;10.698;2023-06-26T12:34:30;4.30;;;3.65;;
20865;SDS011;10593;48.398;10.698;2023-06-26T12:37:00;3.40;;;3.20;;
20865;SDS011;10593;48.398;10.698;2023-06-26T12:42:18;5.13;;;3.72;;
20865;SDS011;10593;48.398;10.698;2023-06-26T12:44:52;3.63;;;3.33;;
20865;SDS011;10593;48.398;10.698;2023-06-26T12:47:24;3.70;;;3.50;;
20865;SDS011;10593;48.398;10.698;2023-06-26T12:49:52;3.60;;;3.30;;
20865;SDS011;10593;48.398;10.698;2023-06-26T12:52:18;4.03;;;3.67;;
20865;SDS011;10593;48.398;10.698;2023-06-26T12:54:46;3.57;;;3.33;;
20865;SDS011;10593;48.398;10.698;2023-06-26T12:57:17;3.60;;;3.30;;
20865;SDS011;10593;48.398;10.698;2023-06-26T12:59:43;4.17;;;3.80;;
20865;SDS011;10593;48.398;10.698;2023-06-26T13:02:09;3.85;;;3.55;;
20865;SDS011;10593;48.398;10.698;2023-06-26T13:04:36;3.83;;;3.53;;
20865;SDS011;10593;48.398;10.698;2023-06-26T13:07:05;4.25;;;3.95;;
20865;SDS011;10593;48.398;10.698;2023-06-26T13:09:34;3.85;;;3.55;;
20865;SDS011;10593;48.398;10.698;2023-06-26T13:12:01;4.45;;;3.55;;
20865;SDS011;10593;48.398;10.698;2023-06-26T13:14:28;3.28;;;3.08;;
20865;SDS011;10593;48.398;10.698;2023-06-26T13:16:55;4.05;;;3.65;;
20865;SDS011;10593;48.398;10.698;2023-06-26T13:19:20;3.97;;;3.67;;
20865;SDS011;10593;48.398;10.698;2023-06-26T13:21:46;4.18;;;3.83;;
20865;SDS011;10593;48.398;10.698;2023-06-26T13:24:12;4.43;;;3.65;;
20865;SDS011;10593;48.398;10.698;2023-06-26T13:26:38;4.05;;;3.65;;
20865;SDS011;10593;48.398;10.698;2023-06-26T13:29:04;4.07;;;3.78;;
20865;SDS011;10593;48.398;10.698;2023-06-26T13:31:31;4.18;;;3.88;;
20865;SDS011;10593;48.398;10.698;2023-06-26T13:33:58;4.00;;;3.63;;
20865;SDS011;10593;48.398;10.698;2023-06-26T13:36:24;5.23;;;4.00;;
20865;SDS011;10593;48.398;10.698;2023-06-26T13:38:51;3.70;;;3.40;;
20865;SDS011;10593;48.398;10.698;2023-06-26T13:41:20;3.50;;;3.30;;
20865;SDS011;10593;48.398;10.698;2023-06-26T13:43:48;3.85;;;3.55;;
20865;SDS011;10593;48.398;10.698;2023-06-26T13:46:13;3.70;;;3.40;;
20865;SDS011;10593;48.398;10.698;2023-06-26T13:48:40;4.27;;;3.97;;
20865;SDS011;10593;48.398;10.698;2023-06-26T13:51:06;3.90;;;3.60;;
20865;SDS011;10593;48.398;10.698;2023-06-26T13:53:31;6.67;;;3.63;;
20865;SDS011;10593;48.398;10.698;2023-06-26T13:55:57;3.90;;;3.60;;
20865;SDS011;10593;48.398;10.698;2023-06-26T13:58:23;3.30;;;3.10;;
20865;SDS011;10593;48.398;10.698;2023-06-26T14:00:51;6.55;;;3.95;;
20865;SDS011;10593;48.398;10.698;2023-06-26T14:03:18;4.47;;;3.77;;
20865;SDS011;10593;48.398;10.698;2023-06-26T14:05:44;4.07;;;3.77;;
20865;SDS011;10593;48.398;10.698;2023-06-26T14:08:10;4.25;;;3.85;;
20865;SDS011;10593;48.398;10.698;2023-06-26T14:10:36;4.38;;;4.07;;
20865;SDS011;10593;48.398;10.698;2023-06-26T14:13:02;5.73;;;4.27;;
20865;SDS011;10593;48.398;10.698;2023-06-26T14:15:29;4.57;;;3.83;;
20865;SDS011;10593;48.398;10.698;2023-06-26T14:17:55;3.88;;;3.58;;
20865;SDS011;10593;48.398;10.698;2023-06-26T14:20:21;4.30;;;4.00;;
20865;SDS011;10593;48.398;10.698;2023-06-26T14:22:47;4.82;;;4.13;;
20865;SDS011;10593;48.398;10.698;2023-06-26T14:25:14;4.32;;;4.03;;
20865;SDS011;10593;48.398;10.698;2023-06-26T14:27:41;3.90;;;3.60;;
20865;SDS011;10593;48.398;10.698;2023-06-26T14:30:07;4.30;;;4.00;;
20865;SDS011;10593;48.398;10.698;2023-06-26T14:32:34;5.18;;;3.70;;
20865;SDS011;10593;48.398;10.698;2023-06-26T14:35:00;4.30;;;3.90;;
20865;SDS011;10593;48.398;10.698;2023-06-26T14:37:26;4.47;;;4.00;;
20865;SDS011;10593;48.398;10.698;2023-06-26T14:39:55;4.50;;;4.20;;
20865;SDS011;10593;48.398;10.698;2023-06-26T14:42:22;4.28;;;3.95;;
20865;SDS011;10593;48.398;10.698;2023-06-26T14:44:47;5.17;;;4.00;;
20865;SDS011;10593;48.398;10.698;2023-06-26T14:47:15;4.57;;;4.18;;
20865;SDS011;10593;48.398;10.698;2023-06-26T14:49:42;4.67;;;4.27;;
20865;SDS011;10593;48.398;10.698;2023-06-26T14:52:07;4.47;;;4.07;;
20865;SDS011;10593;48.398;10.698;2023-06-26T14:54:34;4.50;;;4.10;;
20865;SDS011;10593;48.398;10.698;2023-06-26T14:57:01;4.88;;;4.45;;
20865;SDS011;10593;48.398;10.698;2023-06-26T14:59:32;4.50;;;4.10;;